Acacia Lake, Texas
Current Conditions -  °F | °C
As of 10:53 PM on Wednesday 26 Nov 2014 (Local Time) from KBRO Reporting Station
Clear Clear  
Wind Chill: 54°   Ceiling: Unl
Heat Index: 54°   Visibility: 7mi
Dew Point: 53°   Wind: 3mph
Humidity: 97%   Direction: 150°SSE
Pressure: 30.32"   Gusts: NA
Location:  26.0002°N, 97.5729°W
Report Text: KBRO 270453Z 15003KT 7SM CLR 12/12 A3032 RMK AO2 SLP266 T01220117
Loading
Personal Weather Stations






























Interactive Weather Map New forecast layout! Learn more

10-Day Weather Forecast

Advertisements
Track Severe Weather on mobile